createdAt,value
2022-09-26T00:01:32.317Z,100285.84
2022-09-26T00:04:02.276Z,100278.91
2022-09-26T00:06:29.277Z,100282.38
2022-09-26T00:08:56.675Z,100267.63
2022-09-26T00:11:30.237Z,100252.75
2022-09-26T00:13:59.687Z,100259.81
2022-09-26T00:16:27.242Z,100248.56
2022-09-26T00:18:57.003Z,100254.63
2022-09-26T00:21:23.878Z,100245.94
2022-09-26T00:23:50.566Z,100229.44
2022-09-26T00:26:19.492Z,100233.81
2022-09-26T00:28:46.461Z,100229.47
2022-09-26T00:31:20.866Z,100226.88
2022-09-26T00:33:47.542Z,100219.06
2022-09-26T00:36:14.376Z,100207.78
2022-09-26T00:38:41.273Z,100203.38
2022-09-26T00:41:08.727Z,100204.22
2022-09-26T00:43:45.657Z,100199.91
2022-09-26T00:46:15.320Z,100189.50
2022-09-26T00:48:43.392Z,100188.66
2022-09-26T00:51:11.313Z,100190.41
2022-09-26T00:53:41.954Z,100179.97
2022-09-26T00:56:15.362Z,100177.38
2022-09-26T00:58:48.006Z,100177.41
2022-09-26T01:01:15.857Z,100176.53
2022-09-26T01:03:45.246Z,100173.06
2022-09-26T01:06:12.536Z,100172.19
2022-09-26T01:08:45.242Z,100167.84
2022-09-26T01:11:17.171Z,100157.41
2022-09-26T01:13:45.117Z,100152.22
2022-09-26T01:16:11.762Z,100148.75
2022-09-26T01:18:38.913Z,100148.75
2022-09-26T01:21:24.107Z,100142.69
2022-09-26T01:23:57.902Z,100146.13
2022-09-26T01:26:39.601Z,100135.75
2022-09-26T01:29:40.296Z,100136.59
2022-09-26T01:32:40.892Z,100133.09
2022-09-26T01:35:34.809Z,100131.34
2022-09-26T01:38:11.700Z,100129.63
2022-09-26T01:41:15.835Z,100117.53
2022-09-26T01:44:06.568Z,100100.13
2022-09-26T01:46:47.489Z,100105.38
2022-09-26T01:49:37.636Z,100101.91
2022-09-26T01:52:13.135Z,100101.88
2022-09-26T01:54:49.079Z,100097.53
2022-09-26T01:57:23.654Z,100096.69
2022-09-26T01:59:56.439Z,100095.75
2022-09-26T02:02:27.397Z,100093.16
2022-09-26T02:05:00.334Z,100088.00
2022-09-26T02:07:41.639Z,100074.06
2022-09-26T02:10:22.969Z,100073.19
2022-09-26T02:12:58.919Z,100068.91
2022-09-26T02:15:29.217Z,100068.03
2022-09-26T02:18:05.843Z,100058.50
2022-09-26T02:20:37.797Z,100049.78
2022-09-26T02:23:05.483Z,100050.69
2022-09-26T02:25:33.074Z,100042.88
2022-09-26T02:28:00.267Z,100046.34
2022-09-26T02:30:27.061Z,100044.59
2022-09-26T02:32:53.893Z,100045.47
2022-09-26T02:35:42.440Z,100028.97
2022-09-26T02:38:09.806Z,100027.22
2022-09-26T02:40:52.837Z,100028.97
2022-09-26T02:43:34.952Z,100023.75
2022-09-26T02:46:17.964Z,100022.91
2022-09-26T02:48:51.560Z,100017.69
2022-09-26T02:51:26.554Z,100013.34
2022-09-26T02:54:21.525Z,100009.88
2022-09-26T02:57:03.407Z,100009.88
2022-09-26T02:59:37.380Z,100001.19
2022-09-26T03:02:18.122Z,99994.22
2022-09-26T03:05:17.770Z,99984.66
2022-09-26T03:07:54.032Z,99980.31
2022-09-26T03:10:20.962Z,99973.38
2022-09-26T03:12:49.903Z,99976.00
2022-09-26T03:15:17.604Z,99959.50
2022-09-26T03:17:50.084Z,99969.06
2022-09-26T03:20:21.483Z,99952.56
2022-09-26T03:22:50.353Z,99954.28
2022-09-26T03:25:22.324Z,99960.38
2022-09-26T03:27:56.302Z,99955.19
2022-09-26T03:30:23.762Z,99940.44
2022-09-26T03:33:10.555Z,99947.38
2022-09-26T03:35:37.384Z,99941.31
2022-09-26T03:38:04.048Z,99933.50
2022-09-26T03:40:36.184Z,99933.50
2022-09-26T03:43:24.150Z,99928.31
2022-09-26T03:45:52.128Z,99922.22
2022-09-26T03:48:23.638Z,99929.13
2022-09-26T03:50:50.407Z,99916.13
2022-09-26T03:53:17.180Z,99917.88
2022-09-26T03:55:43.764Z,99911.75
2022-09-26T03:58:10.426Z,99902.22
2022-09-26T04:00:39.592Z,99897.88
2022-09-26T04:03:06.958Z,99899.59
2022-09-26T04:05:38.226Z,99903.94
2022-09-26T04:08:05.852Z,99901.34
2022-09-26T04:10:33.682Z,99896.97
2022-09-26T04:13:01.097Z,99888.31
2022-09-26T04:15:29.377Z,99884.84
2022-09-26T04:18:05.365Z,99877.06
2022-09-26T04:20:32.097Z,99877.06
2022-09-26T04:23:00.279Z,99870.91
2022-09-26T04:25:26.862Z,99877.00
2022-09-26T04:27:53.411Z,99868.31
2022-09-26T04:30:21.567Z,99857.06
2022-09-26T04:32:54.041Z,99849.28
2022-09-26T04:35:27.336Z,99851.03
2022-09-26T04:37:53.913Z,99838.88
2022-09-26T04:40:20.917Z,99841.53
2022-09-26T04:43:00.784Z,99831.06
2022-09-26T04:45:27.504Z,99823.25
2022-09-26T04:47:54.102Z,99814.56
2022-09-26T04:50:26.571Z,99814.50
2022-09-26T04:53:06.917Z,99807.59
2022-09-26T04:55:37.701Z,99804.16
2022-09-26T04:58:04.296Z,99810.28
2022-09-26T05:00:31.546Z,99800.75
2022-09-26T05:03:02.903Z,99798.13
2022-09-26T05:05:31.205Z,99798.03
2022-09-26T05:07:57.811Z,99796.34
2022-09-26T05:10:24.597Z,99789.41
2022-09-26T05:13:03.348Z,99784.19
2022-09-26T05:15:30.694Z,99785.06
2022-09-26T05:17:59.442Z,99777.25
2022-09-26T05:20:31.740Z,99775.53
2022-09-26T05:23:04.268Z,99781.53
2022-09-26T05:25:56.802Z,99784.25
2022-09-26T05:28:24.738Z,99777.31
2022-09-26T05:30:52.886Z,99770.38
2022-09-26T05:33:21.246Z,99782.47
2022-09-26T05:35:54.752Z,99771.16
2022-09-26T05:38:21.637Z,99765.84
2022-09-26T05:40:57.940Z,99770.19
2022-09-26T05:43:29.270Z,99764.16
2022-09-26T05:46:03.945Z,99770.19
2022-09-26T05:48:36.945Z,99763.31
2022-09-26T05:51:12.474Z,99759.03
2022-09-26T05:53:44.244Z,99766.75
2022-09-26T05:56:18.582Z,99766.72
2022-09-26T05:59:21.160Z,99757.16
2022-09-26T06:02:22.606Z,99747.66
2022-09-26T06:05:02.767Z,99750.28
2022-09-26T06:07:38.444Z,99758.94
2022-09-26T06:10:09.747Z,99738.97
2022-09-26T06:12:46.431Z,99744.94
2022-09-26T06:15:15.544Z,99748.41
2022-09-26T06:17:42.216Z,99743.16
2022-09-26T06:20:10.496Z,99738.81
2022-09-26T06:22:41.684Z,99737.03
2022-09-26T06:25:11.113Z,99731.88
2022-09-26T06:27:38.719Z,99730.06
2022-09-26T06:30:08.028Z,99730.84
2022-09-26T06:32:36.134Z,99724.03
2022-09-26T06:35:21.635Z,99716.16
2022-09-26T06:38:04.893Z,99716.84
2022-09-26T06:40:33.641Z,99701.09
2022-09-26T06:43:00.978Z,99706.31
2022-09-26T06:45:48.863Z,99701.28
2022-09-26T06:48:34.196Z,99688.34
2022-09-26T06:51:26.831Z,99688.16
2022-09-26T06:53:53.418Z,99683.03
2022-09-26T06:56:24.921Z,99679.47
2022-09-26T06:58:51.550Z,99672.59
2022-09-26T07:01:22.519Z,99675.09
2022-09-26T07:04:08.495Z,99673.38
2022-09-26T07:06:38.707Z,99670.59
2022-09-26T07:09:15.036Z,99663.59
2022-09-26T07:14:39.932Z,99653.88
2022-09-26T07:17:18.822Z,99650.41
2022-09-26T07:20:13.140Z,99648.66
2022-09-26T07:23:08.731Z,99651.34
2022-09-26T07:25:38.670Z,99652.09
2022-09-26T07:28:07.225Z,99645.94
2022-09-26T07:30:44.068Z,99637.44
2022-09-26T07:33:27.519Z,99637.25
2022-09-26T07:35:59.820Z,99632.53
2022-09-26T07:38:29.746Z,99625.63
2022-09-26T07:40:56.367Z,99628.16
2022-09-26T07:43:37.791Z,99624.88
2022-09-26T07:46:28.408Z,99618.91
2022-09-26T07:49:15.003Z,99621.31
2022-09-26T07:51:48.010Z,99621.09
2022-09-26T07:54:20.839Z,99612.94
2022-09-26T07:56:47.401Z,99604.56
2022-09-26T07:59:29.954Z,99608.69
2022-09-26T08:02:25.056Z,99609.91
2022-09-26T08:04:58.810Z,99601.16
2022-09-26T08:07:28.221Z,99606.84
2022-09-26T08:10:08.327Z,99605.19
2022-09-26T08:12:53.445Z,99601.97
2022-09-26T08:15:46.228Z,99599.38
2022-09-26T08:18:22.262Z,99594.63
2022-09-26T08:20:49.079Z,99594.47
2022-09-26T08:23:17.848Z,99597.22
2022-09-26T08:25:50.724Z,99591.34
2022-09-26T08:28:37.316Z,99603.34
2022-09-26T08:31:05.930Z,99594.59
2022-09-26T08:33:35.257Z,99595.28
2022-09-26T08:36:07.390Z,99598.81
2022-09-26T08:38:50.196Z,99587.44
2022-09-26T08:41:44.524Z,99588.53
2022-09-26T08:45:26.063Z,99582.53
2022-09-26T08:48:26.900Z,99585.00
2022-09-26T08:51:18.943Z,99588.97
2022-09-26T08:53:53.674Z,99591.72
2022-09-26T08:56:35.420Z,99584.69
2022-09-26T08:59:05.439Z,99580.28
2022-09-26T09:01:41.141Z,99581.28
2022-09-26T09:04:53.106Z,99584.00
2022-09-26T09:07:22.981Z,99570.66
2022-09-26T09:09:54.382Z,99568.19
2022-09-26T09:12:37.072Z,99580.47
2022-09-26T09:15:56.885Z,99570.16
2022-09-26T09:18:59.716Z,99567.47
2022-09-26T09:21:50.353Z,99568.25
2022-09-26T09:24:38.926Z,99570.38
2022-09-26T09:30:17.805Z,99558.38
2022-09-26T09:33:21.563Z,99562.94
2022-09-26T09:36:07.291Z,99554.91
2022-09-26T09:39:02.985Z,99556.56
2022-09-26T09:41:52.405Z,99556.03
2022-09-26T09:44:32.153Z,99558.22
2022-09-26T09:46:59.923Z,99554.47
2022-09-26T09:49:26.943Z,99553.59
2022-09-26T09:52:41.967Z,99556.09
2022-09-26T09:55:42.713Z,99551.69
2022-09-26T09:58:20.425Z,99537.75
2022-09-26T10:01:09.797Z,99526.34
2022-09-26T10:03:44.754Z,99522.91
2022-09-26T10:06:13.656Z,99525.78
2022-09-26T10:09:38.804Z,99517.69
2022-09-26T10:12:30.431Z,99523.03
2022-09-26T10:15:22.338Z,99524.56
2022-09-26T10:18:26.881Z,99523.16
2022-09-26T10:21:17.811Z,99520.63
2022-09-26T10:23:48.839Z,99522.47
2022-09-26T10:26:39.431Z,99516.34
2022-09-26T10:32:56.859Z,99506.94
2022-09-26T10:36:04.049Z,99516.53
2022-09-26T10:38:32.671Z,99497.53
2022-09-26T10:41:23.876Z,99503.41
2022-09-26T10:43:55.962Z,99493.78
2022-09-26T10:46:46.539Z,99486.88
2022-09-26T10:50:01.062Z,99493.84
2022-09-26T10:52:51.625Z,99481.34
2022-09-26T10:55:30.167Z,99477.50
2022-09-26T10:58:01.046Z,99480.16
2022-09-26T11:00:36.695Z,99474.16
2022-09-26T11:03:09.494Z,99460.00
2022-09-26T11:05:56.360Z,99451.09
2022-09-26T11:08:35.120Z,99440.94
2022-09-26T11:11:22.492Z,99443.31
2022-09-26T11:13:55.676Z,99440.88
2022-09-26T11:16:22.637Z,99431.47
2022-09-26T11:19:20.769Z,99420.28
2022-09-26T11:22:03.225Z,99414.91
2022-09-26T11:24:43.528Z,99420.03
2022-09-26T11:27:38.613Z,99410.38
2022-09-26T11:30:15.197Z,99407.94
2022-09-26T11:32:56.346Z,99395.81
2022-09-26T11:36:14.647Z,99392.13
2022-09-26T11:38:56.327Z,99381.69
2022-09-26T11:41:46.047Z,99388.25
2022-09-26T11:44:19.893Z,99392.13
2022-09-26T11:47:36.819Z,99390.91
2022-09-26T11:50:25.859Z,99387.69
2022-09-26T11:54:18.571Z,99383.16
2022-09-26T11:57:10.552Z,99378.50
2022-09-26T12:00:12.046Z,99380.25
2022-09-26T12:03:17.807Z,99376.59
2022-09-26T12:06:04.050Z,99370.47
2022-09-26T12:09:03.242Z,99362.03
2022-09-26T12:12:02.221Z,99362.22
2022-09-26T12:14:55.713Z,99354.53
2022-09-26T12:17:47.821Z,99352.91
2022-09-26T12:20:33.301Z,99341.16
2022-09-26T12:23:07.451Z,99335.88
2022-09-26T12:25:48.718Z,99333.97
2022-09-26T12:28:16.329Z,99327.16
2022-09-26T12:30:52.865Z,99317.97
2022-09-26T12:33:58.268Z,99319.72
2022-09-26T12:36:31.445Z,99310.16
2022-09-26T12:39:10.162Z,99309.97
2022-09-26T12:42:06.581Z,99312.78
2022-09-26T12:45:02.986Z,99295.78
2022-09-26T12:47:41.663Z,99291.44
2022-09-26T12:50:49.825Z,99283.00
2022-09-26T12:53:39.212Z,99267.78
2022-09-26T12:56:27.535Z,99283.38
2022-09-26T12:59:06.822Z,99266.06
2022-09-26T13:01:37.810Z,99275.56
2022-09-26T13:04:07.356Z,99262.38
2022-09-26T13:06:52.859Z,99270.94
2022-09-26T13:09:44.205Z,99259.06
2022-09-26T13:12:33.631Z,99253.56
2022-09-26T13:15:35.779Z,99254.72
2022-09-26T13:18:10.876Z,99244.25
2022-09-26T13:20:43.485Z,99243.84
2022-09-26T13:23:13.084Z,99248.09
2022-09-26T13:25:49.719Z,99249.81
2022-09-26T13:28:24.577Z,99230.25
2022-09-26T13:31:03.139Z,99236.56
2022-09-26T13:33:42.928Z,99240.72
2022-09-26T13:36:10.814Z,99233.56
2022-09-26T13:38:55.790Z,99240.03
2022-09-26T13:41:44.302Z,99237.38
2022-09-26T13:44:22.065Z,99235.06
2022-09-26T13:47:08.445Z,99232.88
2022-09-26T13:49:44.451Z,99235.00
2022-09-26T13:52:16.773Z,99225.44
2022-09-26T13:54:55.678Z,99234.72
2022-09-26T13:57:29.532Z,99228.75
2022-09-26T13:59:56.068Z,99218.56
2022-09-26T14:02:29.775Z,99223.19
2022-09-26T14:05:02.454Z,99223.34
2022-09-26T14:07:59.981Z,99217.09
2022-09-26T14:10:34.277Z,99217.66
2022-09-26T14:13:07.975Z,99211.06
2022-09-26T14:15:57.061Z,99215.09
2022-09-26T14:18:45.605Z,99203.84
2022-09-26T14:21:33.878Z,99213.31
2022-09-26T14:24:29.360Z,99197.94
2022-09-26T14:27:25.331Z,99204.81
2022-09-26T14:30:22.451Z,99203.22
2022-09-26T14:32:49.171Z,99193.81
2022-09-26T14:35:20.321Z,99191.44
2022-09-26T14:37:50.363Z,99183.78
2022-09-26T14:40:29.318Z,99172.03
2022-09-26T14:43:24.072Z,99172.59
2022-09-26T14:46:08.204Z,99171.75
2022-09-26T14:48:38.115Z,99165.69
2022-09-26T14:51:23.920Z,99149.38
2022-09-26T14:53:50.636Z,99150.56
2022-09-26T14:56:29.472Z,99153.13
2022-09-26T14:59:24.212Z,99154.84
2022-09-26T15:01:52.571Z,99142.50
2022-09-26T15:04:23.874Z,99140.81
2022-09-26T15:07:01.543Z,99139.03
2022-09-26T15:09:42.150Z,99130.22
2022-09-26T15:12:17.013Z,99125.69
2022-09-26T15:15:07.319Z,99134.41
2022-09-26T15:17:40.111Z,99122.22
2022-09-26T15:20:16.715Z,99127.41
2022-09-26T15:22:44.281Z,99126.88
2022-09-26T15:25:30.495Z,99118.31
2022-09-26T15:27:59.147Z,99116.84
2022-09-26T15:30:37.162Z,99115.38
2022-09-26T15:33:04.279Z,99105.16
2022-09-26T15:35:32.211Z,99114.53
2022-09-26T15:38:08.561Z,99103.41
2022-09-26T15:40:35.321Z,99093.50
2022-09-26T15:43:22.363Z,99098.59
2022-09-26T15:45:58.256Z,99095.44
2022-09-26T15:48:25.358Z,99088.50
2022-09-26T15:50:53.425Z,99072.88
2022-09-26T15:53:37.204Z,99075.63
2022-09-26T15:56:11.532Z,99075.50
2022-09-26T15:59:20.844Z,99077.78
2022-09-26T16:01:52.387Z,99073.69
2022-09-26T16:04:25.304Z,99064.03
2022-09-26T16:07:03.353Z,99064.66
2022-09-26T16:09:34.507Z,99066.81
2022-09-26T16:12:19.153Z,99056.94
2022-09-26T16:15:04.184Z,99054.34
2022-09-26T16:17:35.803Z,99048.09
2022-09-26T16:20:13.694Z,99045.97
2022-09-26T16:22:45.793Z,99040.72
2022-09-26T16:25:15.518Z,99042.97
2022-09-26T16:27:42.335Z,99040.00
2022-09-26T16:30:23.561Z,99035.72
2022-09-26T16:33:15.269Z,99024.63
2022-09-26T16:35:47.719Z,99029.84
2022-09-26T16:38:31.164Z,99029.84
2022-09-26T16:41:06.162Z,99027.88
2022-09-26T16:43:32.937Z,99029.56
2022-09-26T16:46:09.506Z,99025.19
2022-09-26T16:48:51.358Z,99025.41
2022-09-26T16:51:28.752Z,99020.75
2022-09-26T16:54:07.689Z,99026.38
2022-09-26T16:56:43.065Z,99017.84
2022-09-26T16:59:17.818Z,99025.56
2022-09-26T17:01:54.366Z,99020.28
2022-09-26T17:04:32.102Z,99012.56
2022-09-26T17:07:00.123Z,99004.16
2022-09-26T17:09:29.815Z,99006.63
2022-09-26T17:11:58.547Z,99004.59
2022-09-26T17:14:29.905Z,99005.69
2022-09-26T17:16:59.064Z,98996.28
2022-09-26T17:19:29.598Z,98999.47
2022-09-26T17:21:56.242Z,98993.78
2022-09-26T17:24:25.342Z,98990.50
2022-09-26T17:26:59.040Z,98986.75
2022-09-26T17:29:29.883Z,98985.81
2022-09-26T17:31:58.086Z,98982.22
2022-09-26T17:34:26.825Z,98980.28
2022-09-26T17:36:55.810Z,98987.94
2022-09-26T17:39:25.649Z,98983.28
2022-09-26T17:41:53.847Z,98983.41
2022-09-26T17:44:23.946Z,98978.03
2022-09-26T17:46:53.972Z,98984.25
2022-09-26T17:49:26.330Z,98975.59
2022-09-26T17:51:56.283Z,98967.00
2022-09-26T17:54:40.711Z,98961.16
2022-09-26T17:57:12.522Z,98959.81
2022-09-26T17:59:41.389Z,98962.16
2022-09-26T18:02:36.765Z,98959.75
2022-09-26T18:05:28.463Z,98952.06
2022-09-26T18:08:01.598Z,98953.22
2022-09-26T18:10:30.605Z,98956.63
2022-09-26T18:13:00.295Z,98956.53
2022-09-26T18:15:29.479Z,98950.78
2022-09-26T18:17:56.809Z,98944.81
2022-09-26T18:20:36.122Z,98947.28
2022-09-26T18:23:05.211Z,98939.69
2022-09-26T18:25:33.901Z,98937.00
2022-09-26T18:28:05.775Z,98933.56
2022-09-26T18:30:32.933Z,98931.47
2022-09-26T18:32:59.797Z,98934.19
2022-09-26T18:35:29.928Z,98926.59
2022-09-26T18:37:56.652Z,98936.31
2022-09-26T18:40:25.172Z,98927.56
2022-09-26T18:42:57.596Z,98922.94
2022-09-26T18:45:36.619Z,98917.03
2022-09-26T18:48:08.079Z,98930.63
2022-09-26T18:50:37.395Z,98924.69
2022-09-26T18:53:12.559Z,98920.22
2022-09-26T18:55:57.831Z,98924.06
2022-09-26T18:58:25.129Z,98914.75
2022-09-26T19:00:57.504Z,98914.81
2022-09-26T19:03:27.283Z,98904.28
2022-09-26T19:06:03.278Z,98913.66
2022-09-26T19:08:35.568Z,98912.13
2022-09-26T19:11:25.202Z,98913.06
2022-09-26T19:13:57.389Z,98893.91
2022-09-26T19:16:24.842Z,98902.81
2022-09-26T19:18:52.096Z,98896.53
2022-09-26T19:21:29.701Z,98896.69
2022-09-26T19:23:59.842Z,98887.03
2022-09-26T19:26:34.730Z,98889.53
2022-09-26T19:29:02.031Z,98882.78
2022-09-26T19:31:28.994Z,98885.38
2022-09-26T19:33:57.043Z,98888.72
2022-09-26T19:36:23.682Z,98873.84
2022-09-26T19:38:50.358Z,98872.47
2022-09-26T19:41:17.082Z,98870.88
2022-09-26T19:43:43.821Z,98867.53
2022-09-26T19:46:14.816Z,98867.38
2022-09-26T19:48:42.597Z,98863.03
2022-09-26T19:51:15.147Z,98869.13
2022-09-26T19:53:41.876Z,98862.94
2022-09-26T19:56:08.800Z,98857.03
2022-09-26T19:58:35.466Z,98854.44
2022-09-26T20:01:14.151Z,98856.41
2022-09-26T20:03:41.853Z,98853.53
2022-09-26T20:06:28.988Z,98850.94
2022-09-26T20:09:01.727Z,98851.00
2022-09-26T20:11:28.676Z,98850.97
2022-09-26T20:14:13.728Z,98850.44
2022-09-26T20:16:42.254Z,98845.22
2022-09-26T20:19:15.531Z,98846.94
2022-09-26T20:21:42.555Z,98845.81
2022-09-26T20:24:16.389Z,98836.44
2022-09-26T20:26:43.383Z,98832.22
2022-09-26T20:29:14.543Z,98829.94
2022-09-26T20:31:43.472Z,98817.81
2022-09-26T20:34:11.527Z,98835.00
2022-09-26T20:36:42.077Z,98825.47
2022-09-26T20:39:17.953Z,98815.03
2022-09-26T20:41:44.684Z,98804.19
2022-09-26T20:44:16.556Z,98810.47
2022-09-26T20:46:50.009Z,98808.50
2022-09-26T20:49:29.936Z,98799.31
2022-09-26T20:51:58.185Z,98793.16
2022-09-26T20:54:29.093Z,98793.00
2022-09-26T20:56:57.230Z,98789.25
2022-09-26T20:59:25.149Z,98794.06
2022-09-26T21:01:53.352Z,98777.72
2022-09-26T21:04:28.582Z,98781.00
2022-09-26T21:06:55.721Z,98788.50
2022-09-26T21:09:22.306Z,98792.63
2022-09-26T21:11:49.313Z,98790.38
2022-09-26T21:14:16.812Z,98777.66
2022-09-26T21:16:46.739Z,98775.63
2022-09-26T21:19:21.508Z,98780.69
2022-09-26T21:21:52.117Z,98773.69
2022-09-26T21:24:32.649Z,98777.38
2022-09-26T21:26:59.243Z,98777.31
2022-09-26T21:29:27.202Z,98787.28
2022-09-26T21:31:56.153Z,98785.69
2022-09-26T21:34:26.687Z,98783.00
2022-09-26T21:36:56.873Z,98780.16
2022-09-26T21:39:25.400Z,98780.22
2022-09-26T21:41:57.391Z,98784.81
2022-09-26T21:44:37.551Z,98773.94
2022-09-26T21:47:04.169Z,98783.91
2022-09-26T21:49:30.790Z,98782.31
2022-09-26T21:52:11.339Z,98772.44
2022-09-26T21:54:42.705Z,98775.81
2022-09-26T21:57:19.377Z,98773.13
2022-09-26T21:59:47.890Z,98764.72
2022-09-26T22:02:14.793Z,98773.13
2022-09-26T22:04:41.447Z,98769.69
2022-09-26T22:07:08.288Z,98758.63
2022-09-26T22:09:35.081Z,98761.22
2022-09-26T22:12:01.925Z,98762.97
2022-09-26T22:14:28.668Z,98754.38
2022-09-26T22:16:55.876Z,98756.31
2022-09-26T22:19:23.605Z,98748.09
2022-09-26T22:21:51.661Z,98747.13
2022-09-26T22:24:18.806Z,98742.56
2022-09-26T22:26:45.548Z,98742.81
2022-09-26T22:29:12.813Z,98736.75
2022-09-26T22:31:39.495Z,98732.28
2022-09-26T22:34:06.076Z,98741.69
2022-09-26T22:36:33.142Z,98712.34
2022-09-26T22:38:59.985Z,98722.59
2022-09-26T22:41:26.711Z,98719.97
2022-09-26T22:43:53.341Z,98722.00
2022-09-26T22:46:20.128Z,98715.78
2022-09-26T22:48:46.947Z,98712.38
2022-09-26T22:51:15.013Z,98710.38
2022-09-26T22:53:43.002Z,98703.66
2022-09-26T22:56:12.533Z,98701.66
2022-09-26T22:58:44.893Z,98698.28
2022-09-26T23:01:15.378Z,98710.59
2022-09-26T23:03:42.382Z,98708.00
2022-09-26T23:06:10.205Z,98702.06
2022-09-26T23:08:37.515Z,98704.63
2022-09-26T23:11:05.577Z,98698.53
2022-09-26T23:13:33.728Z,98698.44
2022-09-26T23:16:29.560Z,98698.56
2022-09-26T23:18:58.847Z,98688.56
2022-09-26T23:21:27.400Z,98688.66
2022-09-26T23:23:56.675Z,98690.38
2022-09-26T23:26:29.307Z,98678.91
2022-09-26T23:28:57.654Z,98684.03
2022-09-26T23:31:25.561Z,98686.72
2022-09-26T23:33:53.277Z,98678.97
2022-09-26T23:36:20.093Z,98674.78
2022-09-26T23:38:46.959Z,98668.56
2022-09-26T23:41:14.421Z,98675.41
2022-09-26T23:43:41.158Z,98666.41
2022-09-26T23:46:08.812Z,98667.13
2022-09-26T23:48:35.814Z,98659.31
2022-09-26T23:51:02.527Z,98667.81
2022-09-26T23:53:29.790Z,98662.66
2022-09-26T23:56:07.956Z,98669.63
2022-09-26T23:58:35.149Z,98663.47
